< < Back
Terminal Aerodrome Forecast


Current Version              Previous Versions:   1  2  3  4  5  6  7  8  9  

Terminal Aerodrome Forecast

852
FTUS42 KCHS 311127
TAFSAV
TAF
KSAV 311127Z 3112/0112 VRB04KT P6SM BKN090
     FM311400 34007KT P6SM SCT050
     FM010000 VRB03KT P6SM FEW050=

Latest METAR

541
SAUS80 KWBC 311600 RRA
MTRSAV
METAR KSAV 311553Z 01008KT 10SM FEW025 FEW250 30/21 A2995 RMK AO2 SLP140
T03000211


USA.gov is the U.S. government's official web portal to all federal, state and local government web resources and services.